Allandale, Florida
Current Conditions -  °F | °C
As of 4:53 AM on Tuesday 27 Jan 2015 (Local Time) from KDAB Reporting Station
Clear Clear  
Wind Chill: 39°   Ceiling: Unl
Heat Index: 43°   Visibility: 10mi
Dew Point: 35°   Wind: 7mph
Humidity: 74%   Direction: 280°W
Pressure: 29.96"   Gusts: NA
Location:  29.1486°N, 81.0301°W
Report Text: KDAB 270953Z 28006KT 10SM CLR 06/02 A2996 RMK AO2 SLP144 T00610017
Loading
Personal Weather Stations






























Interactive Weather Map New forecast layout! Learn more

10-Day Weather Forecast

Advertisements
Track Severe Weather on mobile